createdAt,value
2022-11-14T05:16:01.836Z,-0.79
2022-11-14T05:18:47.289Z,-0.72
2022-11-14T05:21:32.539Z,-0.69
2022-11-14T05:24:20.942Z,-0.69
2022-11-14T05:27:05.906Z,-0.65
2022-11-14T05:29:50.888Z,-0.61
2022-11-14T05:32:35.939Z,-0.58
2022-11-14T05:35:20.902Z,-0.53
2022-11-14T05:38:05.833Z,-0.47
2022-11-14T05:40:50.848Z,-0.45
2022-11-14T05:43:36.663Z,-0.39
2022-11-14T05:46:21.533Z,-0.32
2022-11-14T05:49:06.564Z,-0.27
2022-11-14T05:51:51.519Z,-0.23
2022-11-14T05:54:36.608Z,-0.17
2022-11-14T05:58:13.191Z,-0.10
2022-11-14T06:01:25.466Z,-0.04
2022-11-14T06:04:22.359Z,-0.01
2022-11-14T06:07:07.899Z,0.07
2022-11-14T06:09:53.149Z,0.12
2022-11-14T06:12:38.006Z,0.15
2022-11-14T06:15:23.089Z,0.22
2022-11-14T06:18:07.981Z,0.30
2022-11-14T06:20:52.892Z,0.33
2022-11-14T06:23:38.684Z,0.33
2022-11-14T06:26:26.058Z,0.34
2022-11-14T06:29:11.446Z,0.37
2022-11-14T06:31:56.575Z,0.42
2022-11-14T06:34:41.717Z,0.48
2022-11-14T06:37:29.407Z,0.51
2022-11-14T06:40:17.828Z,0.53
2022-11-14T06:43:02.931Z,0.49
2022-11-14T06:45:47.958Z,0.52
2022-11-14T06:48:33.374Z,0.62
2022-11-14T06:51:19.002Z,0.62
2022-11-14T06:54:05.368Z,0.69
2022-11-14T06:56:50.665Z,0.75
2022-11-14T06:59:35.784Z,0.75
2022-11-14T07:02:22.150Z,0.80
2022-11-14T07:05:08.913Z,0.77
2022-11-14T07:07:58.891Z,0.88
2022-11-14T07:10:46.096Z,0.92
2022-11-14T07:13:34.512Z,0.88
2022-11-14T07:16:20.616Z,0.93
2022-11-14T07:19:09.685Z,0.96
2022-11-14T07:21:54.475Z,1.11
2022-11-14T07:24:39.495Z,1.13
2022-11-14T07:27:28.608Z,1.18
2022-11-14T07:30:13.763Z,1.19
2022-11-14T07:32:59.639Z,1.19
2022-11-14T07:35:44.545Z,1.25
2022-11-14T07:38:34.603Z,1.31
2022-11-14T07:41:23.166Z,1.33
2022-11-14T07:44:08.567Z,1.36
2022-11-14T07:46:53.903Z,1.40
2022-11-14T07:49:39.029Z,1.45
2022-11-14T07:52:24.182Z,1.46
2022-11-14T07:55:09.590Z,1.51
2022-11-14T07:57:59.026Z,1.50
2022-11-14T08:00:48.219Z,1.49
2022-11-14T08:03:34.370Z,1.55
2022-11-14T08:06:19.630Z,1.59
2022-11-14T08:10:02.815Z,1.64
2022-11-14T08:12:52.814Z,1.51
2022-11-14T08:15:49.683Z,1.67
2022-11-14T08:18:34.615Z,1.76
2022-11-14T08:21:19.338Z,1.68
2022-11-14T08:24:04.605Z,1.64
2022-11-14T08:26:49.759Z,1.68
2022-11-14T08:29:34.629Z,1.49
2022-11-14T08:32:19.795Z,1.68
2022-11-14T08:36:03.110Z,1.68
2022-11-14T08:43:40.099Z,1.81
2022-11-14T08:46:25.073Z,1.85
2022-11-14T08:49:10.086Z,1.94
2022-11-14T08:51:55.112Z,1.91
2022-11-14T08:54:40.332Z,1.95
2022-11-14T08:57:25.251Z,2.05
2022-11-14T09:00:36.177Z,2.17
2022-11-14T09:03:21.774Z,2.13
2022-11-14T09:06:06.913Z,1.98
2022-11-14T09:08:57.714Z,2.07
2022-11-14T09:11:42.930Z,1.99
2022-11-14T09:14:34.275Z,2.12
2022-11-14T09:17:19.647Z,2.00
2022-11-14T09:20:05.043Z,1.96
2022-11-14T09:22:53.260Z,1.91
2022-11-14T09:25:40.578Z,1.78
2022-11-14T09:28:26.059Z,2.00
2022-11-14T09:31:13.317Z,2.05
2022-11-14T09:33:58.552Z,2.24
2022-11-14T09:36:43.784Z,2.35
2022-11-14T09:39:30.977Z,2.38
2022-11-14T09:42:41.243Z,2.53
2022-11-14T09:45:57.724Z,2.78
2022-11-14T09:48:44.366Z,2.96
2022-11-14T09:51:44.657Z,3.19
2022-11-14T09:54:55.785Z,3.43
2022-11-14T09:57:46.144Z,3.58
2022-11-14T10:01:34.094Z,3.69
2022-11-14T10:04:44.003Z,3.54
2022-11-14T10:07:51.685Z,3.59
2022-11-14T10:11:01.784Z,3.59
2022-11-14T10:14:36.644Z,3.69
2022-11-14T10:17:27.296Z,3.83
2022-11-14T10:20:26.851Z,3.93
2022-11-14T10:23:52.031Z,4.18
2022-11-14T10:27:03.420Z,4.60
2022-11-14T10:29:57.520Z,4.63
2022-11-14T10:33:08.566Z,4.69
2022-11-14T10:36:07.586Z,4.65
2022-11-14T10:39:15.891Z,4.38
2022-11-14T10:42:29.776Z,4.69
2022-11-14T10:45:29.365Z,4.79
2022-11-14T10:48:35.285Z,4.86
2022-11-14T10:51:39.382Z,5.04
2022-11-14T10:54:40.928Z,5.05
2022-11-14T10:57:31.517Z,5.02
2022-11-14T11:00:19.398Z,5.07
2022-11-14T11:03:04.570Z,5.12
2022-11-14T11:05:57.612Z,5.05
2022-11-14T11:09:31.938Z,5.12
2022-11-14T11:12:21.638Z,5.16
2022-11-14T11:15:15.482Z,5.20
2022-11-14T11:18:34.687Z,5.32
2022-11-14T11:21:22.391Z,5.44
2022-11-14T11:24:08.737Z,5.53
2022-11-14T11:27:22.769Z,5.76
2022-11-14T11:30:18.231Z,5.95
2022-11-14T11:33:16.953Z,6.36
2022-11-14T11:36:19.857Z,6.28
2022-11-14T11:39:04.910Z,6.28
2022-11-14T11:42:10.185Z,6.07
2022-11-14T11:45:51.338Z,6.28
2022-11-14T11:49:10.513Z,6.20
2022-11-14T11:52:01.923Z,6.33
2022-11-14T11:55:04.869Z,6.34
2022-11-14T11:58:17.850Z,6.24
2022-11-14T12:01:13.517Z,6.47
2022-11-14T12:04:01.422Z,7.16
2022-11-14T12:06:58.746Z,7.49
2022-11-14T12:10:09.190Z,7.47
2022-11-14T12:13:28.953Z,7.61
2022-11-14T12:16:46.522Z,7.29
2022-11-14T12:20:15.178Z,7.36
2022-11-14T12:24:03.236Z,6.88
2022-11-14T12:31:13.944Z,6.75
2022-11-14T12:34:02.897Z,6.49
2022-11-14T12:36:49.485Z,6.37
2022-11-14T12:39:35.806Z,6.50
2022-11-14T12:42:32.244Z,6.38
2022-11-14T12:45:40.731Z,6.06
2022-11-14T12:48:26.757Z,6.23
2022-11-14T12:51:25.867Z,6.23
2022-11-14T12:54:47.728Z,6.21
2022-11-14T12:57:49.691Z,6.14
2022-11-14T13:01:04.473Z,6.14
2022-11-14T13:04:13.680Z,5.94
2022-11-14T13:07:14.227Z,5.94
2022-11-14T13:10:09.560Z,5.81
2022-11-14T13:13:30.315Z,5.95
2022-11-14T13:16:48.541Z,5.89
2022-11-14T13:19:52.296Z,5.79
2022-11-14T13:22:41.811Z,5.94
2022-11-14T13:25:27.607Z,5.99
2022-11-14T13:28:39.143Z,5.99
2022-11-14T13:31:36.592Z,5.81
2022-11-14T13:34:46.186Z,5.86
2022-11-14T13:38:01.546Z,5.64
2022-11-14T13:41:28.070Z,5.67
2022-11-14T13:44:47.772Z,5.83
2022-11-14T13:47:59.095Z,5.92
2022-11-14T13:50:50.176Z,5.83
2022-11-14T13:53:41.036Z,5.89
2022-11-14T14:00:56.808Z,5.98
2022-11-14T14:03:53.791Z,5.99
2022-11-14T14:06:59.752Z,5.93
2022-11-14T14:10:15.585Z,5.92
2022-11-14T14:13:24.585Z,6.01
2022-11-14T14:16:35.310Z,5.99
2022-11-14T14:19:56.698Z,6.03
2022-11-14T14:22:45.379Z,5.93
2022-11-14T14:26:14.599Z,5.97
2022-11-14T14:29:30.699Z,5.86
2022-11-14T14:32:18.172Z,5.97
2022-11-14T14:35:21.827Z,6.05
2022-11-14T14:38:21.717Z,6.10
2022-11-14T14:41:07.182Z,6.09
2022-11-14T14:43:56.089Z,6.06
2022-11-14T14:46:41.403Z,6.10
2022-11-14T14:49:38.050Z,6.08
2022-11-14T14:52:33.008Z,5.95
2022-11-14T14:55:41.748Z,6.02
2022-11-14T14:58:30.075Z,6.01
2022-11-14T15:01:43.224Z,5.99
2022-11-14T15:04:29.967Z,5.94
2022-11-14T15:07:26.832Z,5.85
2022-11-14T15:10:21.251Z,5.91
2022-11-14T15:13:14.120Z,5.67
2022-11-14T15:15:59.935Z,5.81
2022-11-14T15:18:53.300Z,5.91
2022-11-14T15:22:29.218Z,5.90
2022-11-14T15:25:14.164Z,5.94
2022-11-14T15:28:30.480Z,5.97
2022-11-14T15:31:21.681Z,5.96
2022-11-14T15:34:25.739Z,5.95
2022-11-14T15:38:36.667Z,5.94
2022-11-14T15:41:19.981Z,5.91
2022-11-14T15:44:05.601Z,5.92
2022-11-14T15:46:50.923Z,5.93
2022-11-14T15:49:39.610Z,5.67
2022-11-14T15:53:17.681Z,5.80
2022-11-14T15:56:03.950Z,5.82
2022-11-14T15:58:53.724Z,5.76
2022-11-14T16:01:38.851Z,5.65
2022-11-14T16:04:29.464Z,5.70
2022-11-14T16:07:16.704Z,5.78
2022-11-14T16:10:01.956Z,5.87
2022-11-14T16:12:52.262Z,5.79
2022-11-14T16:15:37.981Z,5.80
2022-11-14T16:18:23.136Z,5.72
2022-11-14T16:21:18.274Z,5.74
2022-11-14T16:24:03.658Z,5.69
2022-11-14T16:26:52.034Z,5.63
2022-11-14T16:29:37.095Z,5.69
2022-11-14T16:32:23.356Z,5.51
2022-11-14T16:35:20.660Z,5.48
2022-11-14T16:38:05.548Z,5.41
2022-11-14T16:40:50.486Z,5.23
2022-11-14T16:43:35.523Z,5.43
2022-11-14T16:46:20.918Z,5.46
2022-11-14T16:49:05.992Z,5.34
2022-11-14T16:51:51.956Z,5.19
2022-11-14T16:54:37.148Z,5.17
2022-11-14T16:57:23.035Z,5.14
2022-11-14T17:00:13.713Z,5.27
2022-11-14T17:02:58.933Z,5.19
2022-11-14T17:05:45.806Z,5.14
2022-11-14T17:08:30.736Z,5.15
2022-11-14T17:11:15.719Z,5.17
2022-11-14T17:14:00.863Z,5.19
2022-11-14T17:16:46.723Z,5.18
2022-11-14T17:19:31.764Z,5.28
2022-11-14T17:22:18.345Z,5.19
2022-11-14T17:25:03.404Z,5.29
2022-11-14T17:27:49.037Z,5.16
2022-11-14T17:30:34.059Z,5.24
2022-11-14T17:33:19.159Z,5.28
2022-11-14T17:36:07.000Z,5.28
2022-11-14T17:38:52.492Z,5.39
2022-11-14T17:41:38.591Z,5.32
2022-11-14T17:44:24.438Z,5.37
2022-11-14T17:47:34.946Z,5.51
2022-11-14T17:50:20.117Z,5.50
2022-11-14T17:53:05.531Z,5.60
2022-11-14T17:55:59.137Z,5.50
2022-11-14T17:58:45.066Z,5.45
2022-11-14T18:01:31.697Z,5.44
2022-11-14T18:04:17.102Z,5.58
2022-11-14T18:07:02.478Z,5.64
2022-11-14T18:10:17.254Z,5.47
2022-11-14T18:13:05.091Z,5.48
2022-11-14T18:15:50.705Z,5.46
2022-11-14T18:18:37.244Z,5.53
2022-11-14T18:21:25.290Z,5.45
2022-11-14T18:24:12.965Z,5.54
2022-11-14T18:27:02.129Z,5.35
2022-11-14T18:29:47.307Z,5.48
2022-11-14T18:32:32.957Z,5.48
2022-11-14T18:35:17.933Z,5.49
2022-11-14T18:38:03.228Z,5.50
2022-11-14T18:40:51.693Z,5.51
2022-11-14T18:43:40.116Z,5.41
2022-11-14T18:46:25.777Z,5.28
2022-11-14T18:49:11.116Z,5.31
2022-11-14T18:51:57.549Z,5.49
2022-11-14T18:54:42.910Z,5.48
2022-11-14T18:57:31.325Z,5.44
2022-11-14T19:00:17.522Z,5.44
2022-11-14T19:03:06.224Z,5.45
2022-11-14T19:05:55.740Z,5.49
2022-11-14T19:08:41.786Z,5.25
2022-11-14T19:11:46.773Z,5.45
2022-11-14T19:18:23.212Z,5.37
2022-11-14T19:21:09.737Z,5.43
2022-11-14T19:23:56.015Z,5.32
2022-11-14T19:26:41.763Z,5.43
2022-11-14T19:29:27.722Z,5.37
2022-11-14T19:32:14.083Z,5.24
2022-11-14T19:35:00.310Z,5.43
2022-11-14T19:37:46.094Z,5.26
2022-11-14T19:40:31.684Z,5.29
2022-11-14T19:43:20.260Z,5.26
2022-11-14T19:46:07.569Z,5.24
2022-11-14T19:49:01.298Z,5.36
2022-11-14T19:51:47.925Z,5.45
2022-11-14T19:54:34.160Z,5.37
2022-11-14T19:57:20.369Z,5.43
2022-11-14T20:00:06.628Z,5.41
2022-11-14T20:02:58.711Z,5.33
2022-11-14T20:05:44.119Z,5.39
2022-11-14T20:08:35.524Z,5.29
2022-11-14T20:11:27.742Z,5.33
2022-11-14T20:14:14.838Z,5.28
2022-11-14T20:17:01.590Z,5.35
2022-11-14T20:19:47.688Z,5.40
2022-11-14T20:22:33.475Z,5.35
2022-11-14T20:25:22.205Z,5.25
2022-11-14T20:28:14.192Z,5.19
2022-11-14T20:31:08.172Z,5.03
2022-11-14T20:33:54.752Z,5.06
2022-11-14T20:37:10.026Z,5.14
2022-11-14T20:39:52.431Z,5.11
2022-11-14T20:42:38.327Z,5.09
2022-11-14T20:45:25.749Z,5.03
2022-11-14T20:48:12.793Z,4.90
2022-11-14T20:51:06.993Z,4.87
2022-11-14T20:54:44.454Z,4.91
2022-11-14T20:59:03.087Z,4.88
2022-11-14T21:27:27.955Z,4.55
2022-11-14T21:30:54.036Z,4.59
2022-11-14T21:34:03.704Z,4.56
2022-11-14T21:38:18.606Z,4.61
2022-11-14T21:41:12.387Z,4.68
2022-11-14T21:44:10.998Z,4.69
2022-11-14T21:47:59.133Z,4.80
2022-11-14T21:51:12.769Z,4.73
2022-11-14T21:54:23.099Z,4.79
2022-11-14T21:57:12.698Z,4.60
2022-11-14T21:59:57.873Z,4.74
2022-11-14T22:03:01.900Z,4.85
2022-11-14T22:05:47.082Z,4.84
2022-11-14T22:08:32.331Z,4.77
2022-11-14T22:11:17.502Z,4.96
2022-11-14T22:14:02.740Z,4.92
2022-11-14T22:16:50.820Z,5.03
2022-11-14T22:19:36.080Z,5.00
2022-11-14T22:22:21.406Z,5.13
2022-11-14T22:25:06.740Z,5.22
2022-11-14T22:27:55.262Z,5.26
2022-11-14T22:30:40.577Z,5.11
2022-11-14T22:33:34.858Z,5.20
2022-11-14T22:36:22.148Z,5.34
2022-11-14T22:39:07.328Z,5.41
2022-11-14T22:41:52.386Z,5.54
2022-11-14T22:44:37.545Z,5.57
2022-11-14T22:47:22.533Z,5.56
2022-11-14T22:50:08.150Z,5.54
2022-11-14T22:52:54.596Z,5.39
2022-11-14T22:55:47.917Z,5.33
2022-11-14T22:58:35.818Z,5.43
